Ridgeway, Wisconsin
Current Conditions -  °F | °C
As of 4:15 AM on Saturday 20 Dec 2014 (Local Time) from KMRJ Reporting Station
Haze Haze  
Wind Chill: 28°   Ceiling: 2200
Heat Index: 28°   Visibility: 5mi
Dew Point: 27°   Wind: 3mph
Humidity: 93%   Direction: 120°ESE
Pressure: 30.22"   Gusts: NA
Location:  43°N, 89.99°W
Report Text: KMRJ 201015Z AUTO 12003KT 5SM BR BKN022 OVC028 M02/M03 A3022 RMK AO2
Loading
Personal Weather Stations






























Interactive Weather Map New forecast layout! Learn more

10-Day Weather Forecast

Advertisements
Track Severe Weather on mobile